Scroll down
FLIGHT INFORMATION
Federal Express (FedEx)

FDX527

At Arrival Gate

KMEM
 KIAH
DATE: 2022-07-29
GATE:  -
GATE DEPARTURE: 20:26
TAKEOFF: 20:32
DATE: 2022-07-29
GATE:  -
LANDING: 21:42
GATE ARRIVAL: 21:53
FLIGHT DATA
Crew: 
Speed: 
507 kts
Altitude: 
34,011 ft
Stage Length: 
407.3 nm
Block Time: 
1.4 hrs
Flight Time: 
1.2 hrs
Fuel Used: 
18,729 lb
Cleared Route: KMEM IBUFY IZAAC AEX KIAH
TRACK DATA
50,000 ft 1,000 kts
AIRCRAFT INFO AND CUMULATIVE STATS
Aircraft Type: 
B77LF
Registration: 
SELCAL: 
MSN/LN: 
40671 / 1614
Total Flights: 
3
Total Block Time: 
12 hrs
Total Flight Time: 
11.2 hrs
Total Fuel Used: 
179,192 lb
DATALINK LOG | Newest first | Current as of: 2022-08-16 06:20:19
LABEL SEQUENCE CONTENT Dn/Up
QD162521:53 23.2▼ Dn
QC051421:42▼ Dn
UM2120425KIAH ATIS - IAH ATIS INFO G 2253Z. 16013KT 10SM FEW050TCU SCT250 34/23 A2999 (TWO NINER NINER NINER) RMK AO2 SLP153 TCU AND VCSH S. ARRIVALS EXPECT ILS RY 8R, ILS OR RNAV Y RY 8L, ILS OR RNAV Y RY 9. SIMUL APPROACHES IN USE. DEPG RY 15L, RY 15R. NOTICE TO AIR MISSIONS. UNITED RAMP CONTROL IN EFFECT. HAZD WX INFO FOR IAH AREA AVBL FM FSS. BIRD ACTIVITY VICINITY ARPT. 120.725 OTS. TWY NA CLSD BTN TWY NJ AND TWY NN TWY NL CLSD BTN RWY 26L AND TWY NA . TWY NK CLSD BTN RWY 08R AND TWY NB .. RNAV OR GLS APPROACHES AVAILABLE ON REQUEST. NOTAM ATIS IN USE ON FREQUENCY 126.225. ATTN RWY 8R ARRIVALS HIGHSPEED EXIT NK CLSD. ...ADVS YOU HAVE INFO G.▲ Up
DM790415 ATIS KIAH A▼ Dn
QB560720:32▼ Dn
QA490020:26 42▼ Dn
UM2123355KMEM ATIS - MEM ATIS INFO F 2154Z. 33006KT 10SM SCT024 SCT150 BKN250 31/22 A3003 (THREE ZERO ZERO THREE). ILS APCH IN USE RY 18C. SIMUL DEPS IN USE RY 18R 18C 18L. NOTAM. THE ONE HUNDRED EIGHTY FOOT CRANE NORTH OF RWY 27 IS DOWN. TWY N CLSD BTN TWY P AND TWY M1 ; TWY J CLSD BTN TWY E AND TWY R . RWY 36R GS OTS. RWY 36C PAPEE OTS. READBACK ALL RWY * HOLD SHORT INSTRUCTIONS. RECAT WAKE TURBULENCE SEPARATION STANDARDS IN EFFECT. ALL ACFT CTC GC FOR PUSHBACK ONTO TWY N OR TWY J.. ...ADVS YOU HAVE INFO F.▲ Up
DM793345 ATIS KMEM D▼ Dn
2U3246KIAH 292153Z 17011KT 10SM FEW050 FEW150 SCT250 34/22 A2998 RMK AO2 SLP151 T03440222▲ Up
2U3246KMEM 292154Z 33006KT 10SM SCT024 SCT150 BKN250 31/22 A3003 RMK AO2 SLP162 T03110222▲ Up
2S3245KMEM KIAH▼ Dn
A33245CLEARED TO KIAH VIA PIEPE6 IBUFY izaac AEX GESNR1. SQUAWK 3456.▲ Up
Q03143[LINK ACK]▲ Up
Q03143[LINK TEST]▼ Dn


AIRCRAFT HISTORY
FLIGHT DATE FLIGHT NO. ORIGIN DESTINATION CLEARED ROUTE BLOCK TIME FLIGHT TIME FUEL USED PILOT
2022-07-30FDX1299KIAH KMEM KIAH DREMR TXK KMEM1.5 hrs1.2 hrs19,692 lbAllan Burek
2022-07-29FDX527KMEM KIAH KMEM IBUFY IZAAC AEX KIAH1.4 hrs1.2 hrs18,729 lbAllan Burek
2022-07-28FDX1EGGS KMEM EGSS UTAVA BUZAD OLNEY WELIN AKUPA TIMPO ELVOS TNT RODOL TENSO BELOX REMSI GOMUP 5920N 6030N 6040N 5950N AVUTI YDP PUVOK VANSI GRAMP YTS SSM TVC PECOK UFDUH BITTR ADALE WLTER PMM GIJ BVT PXV KMEM9.1 hrs8.9 hrs140,772 lbAllan Burek